createdAt,value
2019-02-04T00:00:30.222Z,2.40
2019-02-04T00:02:59.513Z,2.40
2019-02-04T00:05:27.845Z,2.40
2019-02-04T00:07:56.482Z,2.40
2019-02-04T00:10:25.055Z,2.40
2019-02-04T00:12:53.396Z,2.40
2019-02-04T00:15:21.744Z,2.40
2019-02-04T00:17:50.293Z,2.30
2019-02-04T00:20:18.549Z,2.30
2019-02-04T00:22:46.838Z,2.30
2019-02-04T00:25:15.091Z,2.30
2019-02-04T00:27:43.724Z,2.30
2019-02-04T00:30:20.800Z,2.20
2019-02-04T00:32:49.147Z,2.20
2019-02-04T00:35:17.466Z,2.20
2019-02-04T00:37:46.018Z,2.10
2019-02-04T00:40:19.755Z,2.10
2019-02-04T00:42:48.513Z,2.10
2019-02-04T00:45:16.774Z,2.10
2019-02-04T00:47:45.470Z,2.00
2019-02-04T00:50:16.173Z,2.10
2019-02-04T00:52:44.798Z,2.00
2019-02-04T00:55:13.287Z,2.10
2019-02-04T00:57:42.130Z,2.00
2019-02-04T01:00:26.768Z,2.00
2019-02-04T01:02:55.302Z,2.00
2019-02-04T01:05:23.635Z,2.00
2019-02-04T01:07:52.054Z,2.00
2019-02-04T01:10:31.525Z,1.90
2019-02-04T01:13:00.311Z,1.90
2019-02-04T01:15:28.557Z,1.90
2019-02-04T01:17:57.139Z,1.90
2019-02-04T01:20:28.380Z,1.90
2019-02-04T01:22:57.289Z,1.90
2019-02-04T01:25:26.094Z,1.90
2019-02-04T01:27:54.408Z,1.90
2019-02-04T01:30:23.866Z,1.90
2019-02-04T01:32:52.376Z,1.90
2019-02-04T01:35:21.194Z,1.90
2019-02-04T01:37:49.829Z,1.90
2019-02-04T01:40:23.136Z,1.90
2019-02-04T01:42:51.627Z,1.90
2019-02-04T01:45:20.283Z,1.90
2019-02-04T01:47:48.878Z,1.80
2019-02-04T01:50:19.049Z,1.80
2019-02-04T01:52:47.413Z,1.80
2019-02-04T01:55:16.051Z,1.80
2019-02-04T01:57:46.730Z,1.80
2019-02-04T02:00:18.238Z,1.70
2019-02-04T02:02:46.514Z,1.60
2019-02-04T02:05:15.468Z,1.60
2019-02-04T02:07:43.868Z,1.60
2019-02-04T02:10:15.330Z,1.60
2019-02-04T02:12:43.958Z,1.60
2019-02-04T02:15:12.419Z,1.60
2019-02-04T02:17:41.161Z,1.50
2019-02-04T02:20:12.650Z,1.50
2019-02-04T02:22:41.296Z,1.50
2019-02-04T02:25:09.723Z,1.50
2019-02-04T02:27:38.020Z,1.50
2019-02-04T02:30:12.203Z,1.40
2019-02-04T02:32:41.426Z,1.40
2019-02-04T02:35:11.620Z,1.40
2019-02-04T02:37:39.879Z,1.40
2019-02-04T02:40:17.306Z,1.40
2019-02-04T02:42:45.682Z,1.40
2019-02-04T02:45:14.004Z,1.40
2019-02-04T02:47:42.264Z,1.30
2019-02-04T02:50:12.554Z,1.30
2019-02-04T02:52:40.815Z,1.30
2019-02-04T02:55:11.936Z,1.40
2019-02-04T02:57:40.187Z,1.30
2019-02-04T03:00:11.990Z,1.30
2019-02-04T03:02:40.327Z,1.30
2019-02-04T03:05:11.895Z,1.30
2019-02-04T03:07:40.272Z,1.30
2019-02-04T03:10:11.549Z,1.20
2019-02-04T03:12:39.863Z,1.20
2019-02-04T03:15:10.748Z,1.20
2019-02-04T03:17:51.614Z,1.10
2019-02-04T03:20:11.723Z,1.20
2019-02-04T03:22:40.053Z,1.10
2019-02-04T03:25:10.694Z,1.10
2019-02-04T03:27:39.413Z,1.10
2019-02-04T03:30:29.273Z,1.10
2019-02-04T03:32:57.519Z,1.10
2019-02-04T03:35:26.125Z,1.10
2019-02-04T03:37:54.458Z,1.10
2019-02-04T03:40:28.182Z,1.00
2019-02-04T03:42:56.790Z,1.00
2019-02-04T03:45:25.208Z,1.00
2019-02-04T03:48:04.305Z,1.00
2019-02-04T03:50:23.970Z,1.00
2019-02-04T03:52:52.594Z,1.00
2019-02-04T03:55:20.953Z,1.00
2019-02-04T03:57:49.190Z,1.00
2019-02-04T04:00:23.262Z,0.90
2019-02-04T04:02:51.747Z,0.90
2019-02-04T04:05:20.039Z,1.00
2019-02-04T04:07:48.372Z,1.00
2019-02-04T04:10:16.632Z,0.90
2019-02-04T04:12:45.130Z,0.90
2019-02-04T04:15:14.948Z,0.90
2019-02-04T04:17:43.259Z,0.90
2019-02-04T04:20:14.126Z,0.90
2019-02-04T04:22:42.383Z,0.90
2019-02-04T04:25:12.786Z,0.90
2019-02-04T04:27:41.129Z,0.90
2019-02-04T04:30:18.070Z,0.90
2019-02-04T04:32:46.591Z,0.90
2019-02-04T04:35:15.258Z,0.90
2019-02-04T04:37:43.554Z,0.80
2019-02-04T04:40:14.166Z,0.80
2019-02-04T04:42:42.771Z,0.80
2019-02-04T04:45:19.855Z,0.80
2019-02-04T04:47:48.578Z,0.80
2019-02-04T04:50:17.233Z,0.80
2019-02-04T04:52:45.617Z,0.80
2019-02-04T04:55:22.590Z,0.80
2019-02-04T04:57:51.171Z,0.80
2019-02-04T05:00:28.776Z,0.70
2019-02-04T05:02:57.061Z,0.70
2019-02-04T05:05:25.343Z,0.70
2019-02-04T05:07:53.892Z,0.60
2019-02-04T05:10:22.907Z,0.60
2019-02-04T05:12:51.184Z,0.60
2019-02-04T05:15:25.106Z,0.60
2019-02-04T05:17:53.422Z,0.50
2019-02-04T05:20:22.053Z,0.60
2019-02-04T05:22:50.705Z,0.60
2019-02-04T05:25:18.984Z,0.50
2019-02-04T05:27:47.298Z,0.60
2019-02-04T05:30:20.797Z,0.50
2019-02-04T05:32:49.107Z,0.60
2019-02-04T05:35:17.398Z,0.60
2019-02-04T05:37:46.000Z,0.60
2019-02-04T05:40:17.855Z,0.60
2019-02-04T05:42:46.490Z,0.60
2019-02-04T05:45:19.970Z,0.60
2019-02-04T05:47:48.527Z,0.60
2019-02-04T05:50:18.517Z,0.50
2019-02-04T05:52:47.279Z,0.50
2019-02-04T05:55:16.785Z,0.50
2019-02-04T05:57:45.432Z,0.50
2019-02-04T06:00:26.802Z,0.50
2019-02-04T06:02:55.605Z,0.50
2019-02-04T06:05:23.972Z,0.60
2019-02-04T06:07:52.214Z,0.60
2019-02-04T06:10:20.624Z,0.60
2019-02-04T06:12:48.891Z,0.60
2019-02-04T06:15:17.645Z,0.60
2019-02-04T06:17:46.285Z,0.60
2019-02-04T06:20:17.619Z,0.50
2019-02-04T06:22:45.950Z,0.50
2019-02-04T06:25:14.304Z,0.40
2019-02-04T06:27:42.628Z,0.40
2019-02-04T06:30:13.701Z,0.40
2019-02-04T06:32:42.374Z,0.40
2019-02-04T06:35:11.533Z,0.30
2019-02-04T06:37:40.041Z,0.30
2019-02-04T06:40:17.333Z,0.30
2019-02-04T06:42:45.790Z,0.40
2019-02-04T06:45:18.202Z,0.40
2019-02-04T06:47:46.547Z,0.40
2019-02-04T06:50:19.706Z,0.40
2019-02-04T06:52:51.585Z,0.40
2019-02-04T06:55:25.825Z,0.30
2019-02-04T06:57:54.539Z,0.30
2019-02-04T07:00:22.935Z,0.20
2019-02-04T07:02:51.544Z,0.20
2019-02-04T07:05:20.394Z,0.20
2019-02-04T07:07:48.828Z,0.20
2019-02-04T07:10:27.535Z,0.00
2019-02-04T07:12:56.066Z,0.10
2019-02-04T07:15:24.655Z,0.00
2019-02-04T07:17:53.138Z,0.00
2019-02-04T07:20:23.216Z,0.00
2019-02-04T07:22:51.844Z,0.00
2019-02-04T07:25:20.816Z,-0.10
2019-02-04T07:27:49.174Z,-0.10
2019-02-04T07:30:23.050Z,-0.10
2019-02-04T07:32:51.804Z,-0.10
2019-02-04T07:35:20.391Z,0.00
2019-02-04T07:37:53.196Z,0.00
2019-02-04T07:40:30.287Z,0.00
2019-02-04T07:43:00.410Z,-0.10
2019-02-04T07:45:31.720Z,0.00
2019-02-04T07:48:01.452Z,0.00
2019-02-04T07:50:29.773Z,0.00
2019-02-04T07:52:58.317Z,0.00
2019-02-04T07:55:26.943Z,0.10
2019-02-04T07:57:57.180Z,0.10
2019-02-04T08:00:30.609Z,0.20
2019-02-04T08:02:59.317Z,0.30
2019-02-04T08:05:27.653Z,0.30
2019-02-04T08:07:56.031Z,0.40
2019-02-04T08:10:24.366Z,0.40
2019-02-04T08:13:01.062Z,0.50
2019-02-04T08:15:25.860Z,0.60
2019-02-04T08:20:29.467Z,0.70
2019-02-04T08:22:57.796Z,0.70
2019-02-04T08:25:26.387Z,0.80
2019-02-04T08:27:55.118Z,0.80
2019-02-04T08:30:31.794Z,0.90
2019-02-04T08:33:00.375Z,1.00
2019-02-04T08:35:28.708Z,1.00
2019-02-04T08:37:57.085Z,1.10
2019-02-04T08:40:25.515Z,1.20
2019-02-04T08:42:54.533Z,1.10
2019-02-04T08:45:22.797Z,1.20
2019-02-04T08:47:51.193Z,1.30
2019-02-04T08:50:22.766Z,1.30
2019-02-04T08:52:51.067Z,1.40
2019-02-04T08:55:19.336Z,1.40
2019-02-04T08:57:47.701Z,1.50
2019-02-04T09:00:21.038Z,1.60
2019-02-04T09:02:49.710Z,1.50
2019-02-04T09:05:19.025Z,1.40
2019-02-04T09:07:47.449Z,1.50
2019-02-04T09:10:21.824Z,1.50
2019-02-04T09:12:50.741Z,1.50
2019-02-04T09:15:19.060Z,1.60
2019-02-04T09:17:47.692Z,1.70
2019-02-04T09:20:17.465Z,1.70
2019-02-04T09:22:46.730Z,1.70
2019-02-04T09:25:17.102Z,1.70
2019-02-04T09:27:45.797Z,1.80
2019-02-04T09:30:16.559Z,1.80
2019-02-04T09:32:45.167Z,1.70
2019-02-04T09:35:18.252Z,1.70
2019-02-04T09:37:46.654Z,1.90
2019-02-04T09:40:20.851Z,2.00
2019-02-04T09:42:49.397Z,2.10
2019-02-04T09:45:18.131Z,2.20
2019-02-04T09:47:46.495Z,2.20
2019-02-04T09:50:21.879Z,2.40
2019-02-04T09:52:47.656Z,2.40
2019-02-04T09:55:18.727Z,2.40
2019-02-04T09:57:47.572Z,2.50
2019-02-04T10:00:21.512Z,2.60
2019-02-04T10:02:49.868Z,2.70
2019-02-04T10:05:18.972Z,2.90
2019-02-04T10:07:47.319Z,3.10
2019-02-04T10:10:23.417Z,3.20
2019-02-04T10:12:52.651Z,3.40
2019-02-04T10:15:27.113Z,3.50
2019-02-04T10:17:56.477Z,3.50
2019-02-04T10:20:33.401Z,3.50
2019-02-04T10:22:54.835Z,3.40
2019-02-04T10:25:26.155Z,3.50
2019-02-04T10:27:54.769Z,3.50
2019-02-04T10:30:24.142Z,3.50
2019-02-04T10:32:52.544Z,3.50
2019-02-04T10:35:21.096Z,3.60
2019-02-04T10:37:50.807Z,3.70
2019-02-04T10:40:21.219Z,3.80
2019-02-04T10:42:49.579Z,3.70
2019-02-04T10:45:19.278Z,3.80
2019-02-04T10:47:47.956Z,3.80
2019-02-04T10:50:25.044Z,3.90
2019-02-04T10:52:53.406Z,3.90
2019-02-04T10:55:21.706Z,3.90
2019-02-04T10:57:50.079Z,4.00
2019-02-04T11:00:25.310Z,4.10
2019-02-04T11:02:53.787Z,4.20
2019-02-04T11:05:27.203Z,4.30
2019-02-04T11:07:55.668Z,4.30
2019-02-04T11:10:25.652Z,4.20
2019-02-04T11:12:54.288Z,4.30
2019-02-04T11:15:25.498Z,4.20
2019-02-04T11:17:53.119Z,4.30
2019-02-04T11:20:28.895Z,4.40
2019-02-04T11:22:57.229Z,4.50
2019-02-04T11:25:25.595Z,4.40
2019-02-04T11:27:53.928Z,4.50
2019-02-04T11:30:28.256Z,4.50
2019-02-04T11:32:59.582Z,4.60
2019-02-04T11:35:27.905Z,4.50
2019-02-04T11:37:56.477Z,4.60
2019-02-04T11:40:33.489Z,4.60
2019-02-04T11:43:01.795Z,4.60
2019-02-04T11:45:30.562Z,4.60
2019-02-04T11:47:59.053Z,4.60
2019-02-04T11:50:27.639Z,4.60
2019-02-04T11:52:56.964Z,4.60
2019-02-04T11:55:25.553Z,4.60
2019-02-04T11:57:53.833Z,4.70
2019-02-04T12:00:30.569Z,4.70
2019-02-04T12:03:00.536Z,4.80
2019-02-04T12:05:29.102Z,4.80
2019-02-04T12:07:57.384Z,4.80
2019-02-04T12:10:31.380Z,4.80
2019-02-04T12:13:00.394Z,4.90
2019-02-04T12:15:28.643Z,4.90
2019-02-04T12:17:56.929Z,5.00
2019-02-04T12:20:25.220Z,4.80
2019-02-04T12:22:53.656Z,4.80
2019-02-04T12:25:26.850Z,4.90
2019-02-04T12:27:56.274Z,5.00
2019-02-04T12:30:42.038Z,5.10
2019-02-04T12:33:13.197Z,5.20
2019-02-04T12:35:41.466Z,5.20
2019-02-04T12:38:09.827Z,5.30
2019-02-04T12:40:38.358Z,5.30
2019-02-04T12:43:06.940Z,5.30
2019-02-04T12:45:37.491Z,5.30
2019-02-04T12:48:05.873Z,5.30
2019-02-04T12:50:34.505Z,5.30
2019-02-04T12:53:03.061Z,5.30
2019-02-04T12:55:32.927Z,5.40
2019-02-04T12:58:01.257Z,5.40
2019-02-04T13:00:30.613Z,5.40
2019-02-04T13:02:59.137Z,5.40
2019-02-04T13:05:33.401Z,5.40
2019-02-04T13:08:01.678Z,5.40
2019-02-04T13:10:30.001Z,5.50
2019-02-04T13:12:58.267Z,5.50
2019-02-04T13:15:26.589Z,5.60
2019-02-04T13:17:54.946Z,5.60
2019-02-04T13:20:23.556Z,5.70
2019-02-04T13:22:51.914Z,5.70
2019-02-04T13:25:25.675Z,5.80
2019-02-04T13:27:54.009Z,5.80
2019-02-04T13:30:24.870Z,5.90
2019-02-04T13:32:53.471Z,5.90
2019-02-04T13:35:21.775Z,6.00
2019-02-04T13:37:50.661Z,6.00
2019-02-04T13:40:21.709Z,6.10
2019-02-04T13:42:50.027Z,6.10
2019-02-04T13:45:19.787Z,6.10
2019-02-04T13:47:48.851Z,6.10
2019-02-04T13:50:18.902Z,6.10
2019-02-04T13:52:47.488Z,6.10
2019-02-04T13:55:36.826Z,6.10
2019-02-04T13:58:05.887Z,6.10
2019-02-04T14:00:34.446Z,6.20
2019-02-04T14:03:03.174Z,6.10
2019-02-04T14:05:31.868Z,6.20
2019-02-04T14:08:00.729Z,6.10
2019-02-04T14:10:37.587Z,6.20
2019-02-04T14:13:06.349Z,6.20
2019-02-04T14:15:35.562Z,6.10
2019-02-04T14:18:04.870Z,6.20
2019-02-04T14:20:33.219Z,6.20
2019-02-04T14:23:01.475Z,6.10
2019-02-04T14:25:29.920Z,6.10
2019-02-04T14:27:58.515Z,6.10
2019-02-04T14:30:32.649Z,6.10
2019-02-04T14:33:01.149Z,6.00
2019-02-04T14:35:29.509Z,6.00
2019-02-04T14:37:57.752Z,6.00
2019-02-04T14:40:26.057Z,6.00
2019-02-04T14:42:59.788Z,6.00
2019-02-04T14:45:36.888Z,5.80
2019-02-04T14:48:08.685Z,5.80
2019-02-04T14:50:40.268Z,5.90
2019-02-04T14:53:14.522Z,5.90
2019-02-04T14:56:01.458Z,6.00
2019-02-04T14:58:33.107Z,5.90
2019-02-04T15:01:25.677Z,5.90
2019-02-04T15:03:57.497Z,5.90
2019-02-04T15:06:45.368Z,5.90
2019-02-04T15:09:42.381Z,5.80
2019-02-04T15:12:19.776Z,5.70
2019-02-04T15:15:09.255Z,5.80
2019-02-04T15:17:40.137Z,5.70
2019-02-04T15:20:11.953Z,5.70
2019-02-04T15:22:49.606Z,5.70
2019-02-04T15:25:36.007Z,5.60
2019-02-04T15:28:22.263Z,5.60
2019-02-04T15:31:03.034Z,5.60
2019-02-04T15:33:46.161Z,5.60
2019-02-04T15:36:45.281Z,5.60
2019-02-04T15:39:31.758Z,5.60
2019-02-04T15:42:03.326Z,5.50
2019-02-04T15:44:34.824Z,5.50
2019-02-04T15:47:06.678Z,5.50
2019-02-04T15:49:50.385Z,5.50
2019-02-04T15:52:13.329Z,5.50
2019-02-04T15:54:41.660Z,5.50
2019-02-04T15:57:10.312Z,5.40
2019-02-04T15:59:38.980Z,5.50
2019-02-04T16:02:07.538Z,5.40
2019-02-04T16:04:36.066Z,5.40
2019-02-04T16:07:06.486Z,5.40
2019-02-04T16:09:34.813Z,5.30
2019-02-04T16:12:03.189Z,5.30
2019-02-04T16:14:31.813Z,5.30
2019-02-04T16:17:00.135Z,5.30
2019-02-04T16:19:28.461Z,5.20
2019-02-04T16:21:56.838Z,5.20
2019-02-04T16:24:25.389Z,5.20
2019-02-04T16:26:53.945Z,5.20
2019-02-04T16:29:22.499Z,5.10
2019-02-04T16:31:50.893Z,5.10
2019-02-04T16:34:19.218Z,5.20
2019-02-04T16:36:47.578Z,5.10
2019-02-04T16:39:16.080Z,5.10
2019-02-04T16:41:44.390Z,5.00
2019-02-04T16:44:12.721Z,5.00
2019-02-04T16:46:41.247Z,5.00
2019-02-04T16:49:09.549Z,5.00
2019-02-04T16:51:38.090Z,5.00
2019-02-04T16:54:06.397Z,5.00
2019-02-04T16:56:34.656Z,4.90
2019-02-04T16:59:02.973Z,4.90
2019-02-04T17:01:31.223Z,4.90
2019-02-04T17:03:59.572Z,4.90
2019-02-04T17:06:27.877Z,4.80
2019-02-04T17:08:56.473Z,4.80
2019-02-04T17:11:24.778Z,4.80
2019-02-04T17:13:53.331Z,4.80
2019-02-04T17:16:21.573Z,4.80
2019-02-04T17:18:50.166Z,4.70
2019-02-04T17:21:18.497Z,4.70
2019-02-04T17:23:46.858Z,4.70
2019-02-04T17:26:15.134Z,4.70
2019-02-04T17:28:43.575Z,4.70
2019-02-04T17:31:11.883Z,4.70
2019-02-04T17:33:40.261Z,4.70
2019-02-04T17:36:08.501Z,4.70
2019-02-04T17:38:36.925Z,4.70
2019-02-04T17:41:05.501Z,4.70
2019-02-04T17:43:34.168Z,4.60
2019-02-04T17:46:02.488Z,4.60
2019-02-04T17:48:30.801Z,4.50
2019-02-04T17:50:59.323Z,4.50
2019-02-04T17:53:34.364Z,4.50
2019-02-04T17:55:58.059Z,4.50
2019-02-04T17:58:26.781Z,4.40
2019-02-04T18:00:55.164Z,4.40
2019-02-04T18:03:23.682Z,4.40
2019-02-04T18:05:52.650Z,4.30
2019-02-04T18:08:20.974Z,4.30
2019-02-04T18:10:49.230Z,4.30
2019-02-04T18:13:17.530Z,4.30
2019-02-04T18:15:46.091Z,4.20
2019-02-04T18:18:14.448Z,4.20
2019-02-04T18:20:42.758Z,4.20
2019-02-04T18:23:11.425Z,4.20
2019-02-04T18:25:39.759Z,4.20
2019-02-04T18:28:08.331Z,4.20
2019-02-04T18:30:36.905Z,4.10
2019-02-04T18:33:05.489Z,4.10
2019-02-04T18:35:34.173Z,4.10
2019-02-04T18:38:02.504Z,4.10
2019-02-04T18:40:30.806Z,4.00
2019-02-04T18:42:59.127Z,4.00
2019-02-04T18:45:34.522Z,4.00
2019-02-04T18:48:03.077Z,3.90
2019-02-04T18:50:31.864Z,3.90
2019-02-04T18:53:00.168Z,3.90
2019-02-04T18:55:34.029Z,3.90
2019-02-04T18:58:02.371Z,3.80
2019-02-04T19:00:32.644Z,3.70
2019-02-04T19:03:02.527Z,3.70
2019-02-04T19:05:31.075Z,3.70
2019-02-04T19:07:59.339Z,3.70
2019-02-04T19:10:27.897Z,3.70
2019-02-04T19:12:56.145Z,3.70
2019-02-04T19:15:26.600Z,3.70
2019-02-04T19:17:57.437Z,3.60
2019-02-04T19:20:25.816Z,3.60
2019-02-04T19:22:54.416Z,3.60
2019-02-04T19:25:22.925Z,3.60
2019-02-04T19:27:52.357Z,3.60
2019-02-04T19:30:35.892Z,3.60
2019-02-04T19:33:04.382Z,3.50
2019-02-04T19:35:32.690Z,3.50
2019-02-04T19:38:01.040Z,3.40
2019-02-04T19:40:29.441Z,3.40
2019-02-04T19:42:57.690Z,3.40
2019-02-04T19:45:27.637Z,3.40
2019-02-04T19:47:55.946Z,3.40
2019-02-04T19:50:35.711Z,3.40
2019-02-04T19:53:04.060Z,3.40
2019-02-04T19:55:34.527Z,3.30
2019-02-04T19:58:03.117Z,3.30
2019-02-04T20:00:32.088Z,3.20
2019-02-04T20:03:00.344Z,3.20
2019-02-04T20:05:32.488Z,3.10
2019-02-04T20:08:00.810Z,3.10
2019-02-04T20:10:31.502Z,3.10
2019-02-04T20:12:59.860Z,3.10
2019-02-04T20:15:29.574Z,3.10
2019-02-04T20:17:57.900Z,3.10
2019-02-04T20:20:26.589Z,3.10
2019-02-04T20:22:55.371Z,3.00
2019-02-04T20:25:31.144Z,3.00
2019-02-04T20:27:59.453Z,3.00
2019-02-04T20:30:45.064Z,3.00
2019-02-04T20:33:06.644Z,3.00
2019-02-04T20:35:35.308Z,3.00
2019-02-04T20:38:04.996Z,3.00
2019-02-04T20:40:33.632Z,3.00
2019-02-04T20:43:02.171Z,3.00
2019-02-04T20:45:30.555Z,3.10
2019-02-04T20:47:58.802Z,3.10
2019-02-04T20:50:32.946Z,3.00
2019-02-04T20:53:01.251Z,3.00
2019-02-04T20:55:29.566Z,3.00
2019-02-04T20:57:58.214Z,3.00
2019-02-04T21:00:30.534Z,3.00
2019-02-04T21:03:01.861Z,3.00
2019-02-04T21:05:29.263Z,3.00
2019-02-04T21:07:57.872Z,3.00
2019-02-04T21:10:30.761Z,3.00
2019-02-04T21:12:59.107Z,3.00
2019-02-04T21:15:27.567Z,3.00
2019-02-04T21:17:55.893Z,3.00
2019-02-04T21:20:26.078Z,3.00
2019-02-04T21:22:54.508Z,3.10
2019-02-04T21:25:22.908Z,3.10
2019-02-04T21:27:51.517Z,3.10
2019-02-04T21:30:24.569Z,3.20
2019-02-04T21:32:52.998Z,3.20
2019-02-04T21:35:21.445Z,3.20
2019-02-04T21:37:49.805Z,3.30
2019-02-04T21:40:19.064Z,3.30
2019-02-04T21:42:47.560Z,3.20
2019-02-04T21:45:18.044Z,3.30
2019-02-04T21:47:46.378Z,3.30
2019-02-04T21:50:19.872Z,3.30
2019-02-04T21:52:48.125Z,3.30
2019-02-04T21:55:16.758Z,3.30
2019-02-04T21:57:45.266Z,3.30
2019-02-04T22:00:22.950Z,3.30
2019-02-04T22:02:51.382Z,3.30
2019-02-04T22:05:22.476Z,3.30
2019-02-04T22:07:50.801Z,3.40
2019-02-04T22:10:24.864Z,3.30
2019-02-04T22:12:53.218Z,3.30
2019-02-04T22:15:21.938Z,3.30
2019-02-04T22:17:50.556Z,3.20
2019-02-04T22:20:19.856Z,3.20
2019-02-04T22:22:48.178Z,3.20
2019-02-04T22:25:21.769Z,3.20
2019-02-04T22:27:50.316Z,3.20
2019-02-04T22:30:27.054Z,3.20
2019-02-04T22:32:55.503Z,3.20
2019-02-04T22:35:23.835Z,3.20
2019-02-04T22:37:52.206Z,3.20
2019-02-04T22:40:22.472Z,3.20
2019-02-04T22:42:50.832Z,3.20
2019-02-04T22:45:19.236Z,3.10
2019-02-04T22:47:47.512Z,3.20
2019-02-04T22:50:21.256Z,3.10
2019-02-04T22:52:49.609Z,3.20
2019-02-04T22:55:18.329Z,3.20
2019-02-04T22:57:46.609Z,3.20
2019-02-04T23:00:51.710Z,3.20
2019-02-04T23:03:26.003Z,3.20
2019-02-04T23:05:54.632Z,3.20
2019-02-04T23:08:23.492Z,3.30
2019-02-04T23:10:52.184Z,3.20
2019-02-04T23:13:20.440Z,3.20
2019-02-04T23:15:48.714Z,3.20
2019-02-04T23:18:17.815Z,3.20
2019-02-04T23:20:46.346Z,3.20
2019-02-04T23:23:14.629Z,3.20
2019-02-04T23:25:43.825Z,3.10
2019-02-04T23:28:12.265Z,3.30
2019-02-04T23:30:40.528Z,3.30
2019-02-04T23:33:08.842Z,3.30
2019-02-04T23:35:37.412Z,3.30
2019-02-04T23:38:06.042Z,3.30
2019-02-04T23:40:34.357Z,3.30
2019-02-04T23:43:02.637Z,3.30
2019-02-04T23:45:31.220Z,3.30
2019-02-04T23:47:59.878Z,3.30
2019-02-04T23:50:28.209Z,3.30
2019-02-04T23:52:56.847Z,3.30
2019-02-04T23:55:25.437Z,3.30
2019-02-04T23:57:53.796Z,3.30
